Time;durP1;ratioP1;P1;durP2;ratioP2;P2;SDS_P1;SDS_P2;PMS_P1;PMS_P2;Temp;Humidity;BMP_temperature;BMP_pressure;BME280_temperature;BME280_humidity;BME280_pressure;Samples;Min_cycle;Max_cycle;Signal;HPM_P1;HPM_P2
2023/03/23 00:00:13;;;;;;;7.80;3.97;;;;;;;;;;1048001;28;20157;-74
2023/03/23 00:00:43;;;;;;;18.08;4.43;;;;;;;;;;1045665;28;20024;-73
2023/03/23 00:01:19;;;;;;;17.50;4.78;;;;;;;;;;1048261;28;20527;-74
2023/03/23 00:01:49;;;;;;;12.18;5.35;;;;;;;;;;1045873;28;20459;-74
2023/03/23 00:02:38;;;;;;;17.05;5.93;;;;;;;;;;1044584;28;20067;-73
2023/03/23 00:03:09;;;;;;;5.20;2.42;;;;;;;;;;1043146;28;20416;-74
2023/03/23 00:03:40;;;;;;;8.57;5.47;;;;;;;;;;1046349;28;20115;-75
2023/03/23 00:04:13;;;;;;;13.93;5.97;;;;;;;;;;1048279;28;20519;-74
2023/03/23 00:04:43;;;;;;;6.80;5.10;;;;;;;;;;1048217;28;20082;-74
2023/03/23 00:05:14;;;;;;;19.00;6.60;;;;;;;;;;1048161;28;20438;-74
2023/03/23 00:05:50;;;;;;;10.15;5.07;;;;;;;;;;1047864;28;20500;-74
2023/03/23 00:06:20;;;;;;;14.77;6.07;;;;;;;;;;1047780;28;20095;-73
2023/03/23 00:06:51;;;;;;;28.65;5.35;;;;;;;;;;1047677;28;20032;-74
2023/03/23 00:07:22;;;;;;;15.35;6.05;;;;;;;;;;1046937;28;20024;-74
2023/03/23 00:07:55;;;;;;;11.93;5.15;;;;;;;;;;1044107;28;20087;-75
2023/03/23 00:08:26;;;;;;;14.35;3.40;;;;;;;;;;1047725;28;20099;-75
2023/03/23 00:08:59;;;;;;;12.23;7.03;;;;;;;;;;1048182;28;20024;-74
2023/03/23 00:09:34;;;;;;;8.95;5.25;;;;;;;;;;1044450;28;20470;-74
2023/03/23 00:10:05;;;;;;;16.75;5.30;;;;;;;;;;1048258;28;20028;-74
2023/03/23 00:10:35;;;;;;;7.00;4.60;;;;;;;;;;1047689;28;20028;-74
2023/03/23 00:11:05;;;;;;;13.60;3.47;;;;;;;;;;1048221;28;20478;-74
2023/03/23 00:11:36;;;;;;;6.95;4.28;;;;;;;;;;1048175;28;20027;-74
2023/03/23 00:12:07;;;;;;;6.20;4.47;;;;;;;;;;1046840;28;20025;-74
2023/03/23 00:12:41;;;;;;;8.70;3.20;;;;;;;;;;1047829;28;20427;-74
2023/03/23 00:13:12;;;;;;;9.27;4.57;;;;;;;;;;1044078;28;20489;-75
2023/03/23 00:13:45;;;;;;;11.23;4.97;;;;;;;;;;1040451;28;20022;-75
2023/03/23 00:14:16;;;;;;;13.73;5.10;;;;;;;;;;1043521;28;20025;-75
2023/03/23 00:14:47;;;;;;;6.80;3.33;;;;;;;;;;1044350;28;20025;-74
2023/03/23 00:15:18;;;;;;;11.73;7.15;;;;;;;;;;1044338;28;20362;-74
2023/03/23 00:15:49;;;;;;;5.00;3.25;;;;;;;;;;1047741;28;20112;-74
2023/03/23 00:16:20;;;;;;;4.57;3.53;;;;;;;;;;1047913;28;20029;-74
2023/03/23 00:16:51;;;;;;;4.45;3.47;;;;;;;;;;1047915;28;20448;-74
2023/03/23 00:17:23;;;;;;;8.60;3.33;;;;;;;;;;1043820;28;20016;-75
2023/03/23 00:18:01;;;;;;;21.48;4.20;;;;;;;;;;1047325;28;20035;-75
2023/03/23 00:18:35;;;;;;;6.18;3.33;;;;;;;;;;1047182;28;20457;-75
2023/03/23 00:19:07;;;;;;;5.68;2.83;;;;;;;;;;1048095;28;20036;-76
2023/03/23 00:19:45;;;;;;;7.75;4.10;;;;;;;;;;1047022;28;20020;-75
2023/03/23 00:20:16;;;;;;;3.53;3.08;;;;;;;;;;1047795;28;20020;-74
2023/03/23 00:20:48;;;;;;;8.90;5.65;;;;;;;;;;1048234;28;20028;-75
2023/03/23 00:21:19;;;;;;;10.00;3.30;;;;;;;;;;1048445;28;20493;-75
2023/03/23 00:21:53;;;;;;;9.60;4.63;;;;;;;;;;1047728;28;21765;-74
2023/03/23 00:22:24;;;;;;;26.77;5.93;;;;;;;;;;1047233;28;20017;-74
2023/03/23 00:22:59;;;;;;;6.97;4.68;;;;;;;;;;1048452;28;20074;-74
2023/03/23 00:23:30;;;;;;;15.18;4.97;;;;;;;;;;1048412;28;20036;-74
2023/03/23 00:24:10;;;;;;;11.57;4.60;;;;;;;;;;1047484;28;20520;-74
2023/03/23 00:24:41;;;;;;;16.50;7.20;;;;;;;;;;1047099;28;20028;-75
2023/03/23 00:25:12;;;;;;;17.45;6.47;;;;;;;;;;1048053;28;20054;-75
2023/03/23 00:25:44;;;;;;;12.30;6.38;;;;;;;;;;1045657;28;20031;-74
2023/03/23 00:26:14;;;;;;;23.42;6.00;;;;;;;;;;1045231;28;20116;-75
2023/03/23 00:26:46;;;;;;;10.52;4.82;;;;;;;;;;1045951;28;20513;-74
2023/03/23 00:27:17;;;;;;;9.70;4.78;;;;;;;;;;1047905;28;20091;-74
2023/03/23 00:27:47;;;;;;;14.57;4.60;;;;;;;;;;1046614;28;20020;-74
2023/03/23 00:28:24;;;;;;;7.70;4.35;;;;;;;;;;1047925;28;20032;-73
2023/03/23 00:28:55;;;;;;;12.05;6.47;;;;;;;;;;1047580;28;20503;-74
2023/03/23 00:29:25;;;;;;;21.30;4.22;;;;;;;;;;1047583;28;20024;-74
2023/03/23 00:29:56;;;;;;;7.57;4.40;;;;;;;;;;1048033;28;20028;-74
2023/03/23 00:30:27;;;;;;;14.52;5.50;;;;;;;;;;1048192;28;20024;-74
2023/03/23 00:31:01;;;;;;;11.75;4.75;;;;;;;;;;1048304;28;20024;-74
2023/03/23 00:31:32;;;;;;;9.57;3.70;;;;;;;;;;1047315;28;20021;-74
2023/03/23 00:32:02;;;;;;;10.32;5.95;;;;;;;;;;1048007;28;20020;-74
2023/03/23 00:32:33;;;;;;;16.80;4.70;;;;;;;;;;1047659;28;20514;-74
2023/03/23 00:33:03;;;;;;;12.18;5.28;;;;;;;;;;1047784;28;20500;-74
2023/03/23 00:33:37;;;;;;;11.45;4.30;;;;;;;;;;1047671;28;20420;-74
2023/03/23 00:34:12;;;;;;;9.32;5.88;;;;;;;;;;1048057;28;20020;-74
2023/03/23 00:34:43;;;;;;;8.68;3.83;;;;;;;;;;1046958;28;20082;-74
2023/03/23 00:35:15;;;;;;;23.33;7.07;;;;;;;;;;1043536;28;20025;-74
2023/03/23 00:35:45;;;;;;;7.60;4.25;;;;;;;;;;1043864;28;20120;-75
2023/03/23 00:36:17;;;;;;;11.93;4.82;;;;;;;;;;1044207;28;20391;-74
2023/03/23 00:36:49;;;;;;;6.82;3.97;;;;;;;;;;1046988;28;20032;-74
2023/03/23 00:37:21;;;;;;;7.75;5.35;;;;;;;;;;1047609;28;20380;-74
2023/03/23 00:37:51;;;;;;;13.60;5.43;;;;;;;;;;1047491;28;20024;-73
2023/03/23 00:38:23;;;;;;;12.73;7.53;;;;;;;;;;1047421;28;20106;-73
2023/03/23 00:38:53;;;;;;;15.05;5.15;;;;;;;;;;1048022;28;20406;-74
2023/03/23 00:39:25;;;;;;;11.35;5.70;;;;;;;;;;1046871;28;20020;-74
2023/03/23 00:39:57;;;;;;;10.85;4.72;;;;;;;;;;1047856;28;20388;-73
2023/03/23 00:40:27;;;;;;;15.05;6.25;;;;;;;;;;1047825;28;20036;-74
2023/03/23 00:41:02;;;;;;;12.30;6.00;;;;;;;;;;1048150;28;20027;-74
2023/03/23 00:41:36;;;;;;;17.90;4.97;;;;;;;;;;1047568;28;20126;-74
2023/03/23 00:42:06;;;;;;;16.05;5.78;;;;;;;;;;1047966;28;20376;-73
2023/03/23 00:42:37;;;;;;;7.80;4.15;;;;;;;;;;1047965;28;20020;-73
2023/03/23 00:43:08;;;;;;;11.00;5.03;;;;;;;;;;1048224;28;20415;-74
2023/03/23 00:43:38;;;;;;;8.90;3.30;;;;;;;;;;1046507;28;20021;-74
2023/03/23 00:44:09;;;;;;;24.77;5.95;;;;;;;;;;1047967;28;20527;-74
2023/03/23 00:44:40;;;;;;;11.18;5.30;;;;;;;;;;1042350;28;20538;-75
2023/03/23 00:45:11;;;;;;;8.38;4.97;;;;;;;;;;1043638;28;20021;-74
2023/03/23 00:45:44;;;;;;;11.05;6.35;;;;;;;;;;1047106;28;20123;-74
2023/03/23 00:46:15;;;;;;;12.15;5.97;;;;;;;;;;1048085;28;20020;-74
2023/03/23 00:46:48;;;;;;;14.48;6.65;;;;;;;;;;1047776;28;20564;-74
2023/03/23 00:47:18;;;;;;;9.48;4.15;;;;;;;;;;1047694;28;20442;-74
2023/03/23 00:47:50;;;;;;;12.45;3.72;;;;;;;;;;1048117;28;20082;-74
2023/03/23 00:48:24;;;;;;;9.68;4.88;;;;;;;;;;1047756;28;20100;-74
2023/03/23 00:48:56;;;;;;;8.15;4.43;;;;;;;;;;1048103;28;20021;-74
2023/03/23 00:49:27;;;;;;;10.18;5.13;;;;;;;;;;1047253;28;20021;-74
2023/03/23 00:49:57;;;;;;;6.78;3.88;;;;;;;;;;1047743;28;20059;-74
2023/03/23 00:50:28;;;;;;;8.25;4.18;;;;;;;;;;1047693;28;20115;-74
2023/03/23 00:50:58;;;;;;;7.68;4.78;;;;;;;;;;1047881;28;20476;-74
2023/03/23 00:51:29;;;;;;;10.75;5.25;;;;;;;;;;1047732;28;20023;-74
2023/03/23 00:52:00;;;;;;;21.92;5.88;;;;;;;;;;1047866;28;20124;-75
2023/03/23 00:52:31;;;;;;;14.85;5.13;;;;;;;;;;1047627;28;20502;-74
2023/03/23 00:53:01;;;;;;;10.80;6.63;;;;;;;;;;1047931;28;20021;-74
2023/03/23 00:53:32;;;;;;;5.25;3.65;;;;;;;;;;1046890;28;20419;-74
2023/03/23 00:54:03;;;;;;;7.65;3.47;;;;;;;;;;1047518;28;20028;-74
2023/03/23 00:54:34;;;;;;;8.15;3.85;;;;;;;;;;1047568;28;20024;-74
2023/03/23 00:55:04;;;;;;;8.40;4.03;;;;;;;;;;1048130;28;20036;-75
2023/03/23 00:55:35;;;;;;;13.10;4.18;;;;;;;;;;1047504;28;20531;-75
2023/03/23 00:56:06;;;;;;;7.88;4.25;;;;;;;;;;1048027;28;20027;-75
2023/03/23 00:56:38;;;;;;;4.50;2.95;;;;;;;;;;1045305;28;20660;-75
2023/03/23 00:57:09;;;;;;;4.38;3.88;;;;;;;;;;1044539;28;20392;-74
2023/03/23 00:57:40;;;;;;;7.60;4.13;;;;;;;;;;1041411;28;20509;-75
2023/03/23 00:58:11;;;;;;;6.20;4.18;;;;;;;;;;1039627;28;20021;-75
2023/03/23 00:58:41;;;;;;;7.15;4.95;;;;;;;;;;1038828;28;20397;-74
2023/03/23 00:59:12;;;;;;;12.65;3.17;;;;;;;;;;1039452;28;20615;-74
2023/03/23 00:59:42;;;;;;;9.20;5.75;;;;;;;;;;1043743;28;20025;-74
2023/03/23 01:00:13;;;;;;;13.57;5.25;;;;;;;;;;1047683;28;20029;-74
2023/03/23 01:00:43;;;;;;;4.72;3.22;;;;;;;;;;1047592;28;20021;-74
2023/03/23 01:01:14;;;;;;;8.65;4.68;;;;;;;;;;1047802;28;20036;-74
2023/03/23 01:01:45;;;;;;;8.10;5.70;;;;;;;;;;1047832;28;20055;-73
2023/03/23 01:02:16;;;;;;;8.85;4.93;;;;;;;;;;1048221;28;20098;-74
2023/03/23 01:02:46;;;;;;;4.40;3.53;;;;;;;;;;1047989;28;20391;-74
2023/03/23 01:03:18;;;;;;;13.45;4.85;;;;;;;;;;1047431;28;20111;-74
2023/03/23 01:03:49;;;;;;;8.25;5.28;;;;;;;;;;1047692;28;20036;-74
2023/03/23 01:04:20;;;;;;;6.28;3.88;;;;;;;;;;1047241;28;20487;-74
2023/03/23 01:04:52;;;;;;;6.35;3.85;;;;;;;;;;1047757;28;20129;-74
2023/03/23 01:05:22;;;;;;;6.80;4.97;;;;;;;;;;1047688;28;20021;-74
2023/03/23 01:05:53;;;;;;;8.02;3.45;;;;;;;;;;1048302;28;20027;-74
2023/03/23 01:06:23;;;;;;;3.85;2.88;;;;;;;;;;1047922;28;20025;-73
2023/03/23 01:06:54;;;;;;;9.68;4.05;;;;;;;;;;1047541;28;20048;-73
2023/03/23 01:07:24;;;;;;;8.57;5.38;;;;;;;;;;1047558;28;20107;-74
2023/03/23 01:07:55;;;;;;;12.00;4.35;;;;;;;;;;1048058;28;20071;-73
2023/03/23 01:08:27;;;;;;;6.07;3.22;;;;;;;;;;1047492;28;20027;-74
2023/03/23 01:08:58;;;;;;;10.90;5.22;;;;;;;;;;1046270;28;20444;-74
2023/03/23 01:09:29;;;;;;;10.63;4.75;;;;;;;;;;1047311;28;20436;-74
2023/03/23 01:10:01;;;;;;;8.95;5.47;;;;;;;;;;1048380;28;20043;-74
2023/03/23 01:10:32;;;;;;;6.95;4.53;;;;;;;;;;1047879;28;20024;-74
2023/03/23 01:11:06;;;;;;;5.82;3.25;;;;;;;;;;1047588;28;20042;-74
2023/03/23 01:11:37;;;;;;;5.80;3.38;;;;;;;;;;1047553;28;20027;-74
2023/03/23 01:12:08;;;;;;;5.68;3.55;;;;;;;;;;1048294;28;20109;-74
2023/03/23 01:12:39;;;;;;;9.88;3.58;;;;;;;;;;1046823;28;20024;-74
2023/03/23 01:13:09;;;;;;;5.30;2.85;;;;;;;;;;1046919;28;20027;-74
2023/03/23 01:13:41;;;;;;;12.05;5.85;;;;;;;;;;1047772;28;20047;-74
2023/03/23 01:14:12;;;;;;;9.73;4.70;;;;;;;;;;1047421;28;20025;-74
2023/03/23 01:14:43;;;;;;;7.50;3.55;;;;;;;;;;1047304;28;20587;-73
2023/03/23 01:15:15;;;;;;;19.88;4.57;;;;;;;;;;1046261;28;20028;-73
2023/03/23 01:15:45;;;;;;;4.20;3.28;;;;;;;;;;1046714;28;20477;-73
2023/03/23 01:16:17;;;;;;;8.85;5.78;;;;;;;;;;1048172;28;20050;-74
2023/03/23 01:16:48;;;;;;;4.93;3.25;;;;;;;;;;1043268;28;20328;-74
2023/03/23 01:17:19;;;;;;;6.65;3.70;;;;;;;;;;1047367;28;20020;-74
2023/03/23 01:17:50;;;;;;;12.05;5.32;;;;;;;;;;1047371;28;20135;-74
2023/03/23 01:18:20;;;;;;;8.52;4.93;;;;;;;;;;1047030;28;20023;-74
2023/03/23 01:18:51;;;;;;;5.63;3.90;;;;;;;;;;1046771;28;20033;-74
2023/03/23 01:19:21;;;;;;;11.18;5.65;;;;;;;;;;1047009;28;20143;-73
2023/03/23 01:19:52;;;;;;;10.75;3.65;;;;;;;;;;1045186;28;20031;-74
2023/03/23 01:20:23;;;;;;;10.07;5.03;;;;;;;;;;1044673;28;20502;-74
2023/03/23 01:20:53;;;;;;;4.30;3.85;;;;;;;;;;1046390;28;20082;-74
2023/03/23 01:21:24;;;;;;;16.63;4.68;;;;;;;;;;1044993;28;20031;-74
2023/03/23 01:21:55;;;;;;;11.70;3.78;;;;;;;;;;1043179;28;20529;-75
2023/03/23 01:22:25;;;;;;;12.65;4.97;;;;;;;;;;1040437;28;21643;-74
2023/03/23 01:23:00;;;;;;;13.27;5.60;;;;;;;;;;1042212;28;20131;-74
2023/03/23 01:23:31;;;;;;;17.98;5.90;;;;;;;;;;1042315;28;20265;-74
2023/03/23 01:24:02;;;;;;;9.35;6.47;;;;;;;;;;1043234;28;20040;-74
2023/03/23 01:24:32;;;;;;;9.20;5.78;;;;;;;;;;1040707;28;20359;-74
2023/03/23 01:25:03;;;;;;;11.32;6.10;;;;;;;;;;1038640;28;20032;-74
2023/03/23 01:25:35;;;;;;;24.33;6.38;;;;;;;;;;1042028;28;20446;-74
2023/03/23 01:26:07;;;;;;;13.73;5.72;;;;;;;;;;1038639;28;20149;-74
2023/03/23 01:26:37;;;;;;;8.88;4.97;;;;;;;;;;1042593;28;20717;-74
2023/03/23 01:27:08;;;;;;;8.38;2.80;;;;;;;;;;1044934;28;20024;-74
2023/03/23 01:27:39;;;;;;;14.32;7.35;;;;;;;;;;1046068;28;20502;-74
2023/03/23 01:28:10;;;;;;;13.77;5.63;;;;;;;;;;1046489;28;20482;-74
2023/03/23 01:28:41;;;;;;;16.77;4.05;;;;;;;;;;1047867;28;20476;-73
2023/03/23 01:29:11;;;;;;;24.08;6.18;;;;;;;;;;1049845;28;20031;-75
2023/03/23 01:29:42;;;;;;;11.25;5.55;;;;;;;;;;1050997;28;20477;-74
2023/03/23 01:30:13;;;;;;;18.50;7.28;;;;;;;;;;1045465;28;20579;-74
2023/03/23 01:30:43;;;;;;;15.10;5.95;;;;;;;;;;1044823;28;20060;-74
2023/03/23 01:31:15;;;;;;;24.50;6.75;;;;;;;;;;1044362;28;20032;-75
2023/03/23 01:31:46;;;;;;;23.92;7.40;;;;;;;;;;1043869;28;20032;-74
2023/03/23 01:32:17;;;;;;;22.80;8.02;;;;;;;;;;1044267;28;20025;-74
2023/03/23 01:32:50;;;;;;;26.05;9.68;;;;;;;;;;1045701;28;20020;-74
2023/03/23 01:33:21;;;;;;;13.40;6.97;;;;;;;;;;1042089;28;20120;-74
2023/03/23 01:33:52;;;;;;;14.55;6.03;;;;;;;;;;1039757;28;20067;-74
2023/03/23 01:34:22;;;;;;;18.75;7.28;;;;;;;;;;1036834;28;20389;-74
2023/03/23 01:34:53;;;;;;;17.35;6.78;;;;;;;;;;1031606;28;20625;-74
2023/03/23 01:35:24;;;;;;;13.90;5.80;;;;;;;;;;1036397;28;20033;-75
2023/03/23 01:35:54;;;;;;;18.77;7.25;;;;;;;;;;1041428;28;20112;-75
2023/03/23 01:36:28;;;;;;;20.63;6.78;;;;;;;;;;1043358;28;20106;-75
2023/03/23 01:36:59;;;;;;;23.73;7.93;;;;;;;;;;1043799;28;20825;-74
2023/03/23 01:37:30;;;;;;;6.35;4.57;;;;;;;;;;1044578;28;20028;-75
2023/03/23 01:38:00;;;;;;;9.30;6.40;;;;;;;;;;1044598;28;20396;-74
2023/03/23 01:38:38;;;;;;;16.00;5.90;;;;;;;;;;1041110;28;20021;-76
2023/03/23 01:39:09;;;;;;;11.18;6.25;;;;;;;;;;1037076;28;20109;-75
2023/03/23 01:39:39;;;;;;;18.60;6.78;;;;;;;;;;1040453;28;20261;-74
2023/03/23 01:40:10;;;;;;;11.00;5.47;;;;;;;;;;1037600;28;20045;-74
2023/03/23 01:40:41;;;;;;;12.75;4.88;;;;;;;;;;1042004;28;20060;-74
2023/03/23 01:41:12;;;;;;;16.48;7.53;;;;;;;;;;1039512;28;20111;-74
2023/03/23 01:41:42;;;;;;;22.60;9.23;;;;;;;;;;1040588;28;20029;-74
2023/03/23 01:42:13;;;;;;;10.82;6.47;;;;;;;;;;1042858;28;20029;-74
2023/03/23 01:42:43;;;;;;;16.00;5.70;;;;;;;;;;1041844;28;20043;-74
2023/03/23 01:43:15;;;;;;;12.45;5.45;;;;;;;;;;1043994;28;20056;-74
2023/03/23 01:43:55;;;;;;;11.05;6.93;;;;;;;;;;1042712;28;20044;-74
2023/03/23 01:44:26;;;;;;;15.40;7.97;;;;;;;;;;1045350;28;20032;-73
2023/03/23 01:45:15;;;;;;;20.25;7.68;;;;;;;;;;1047146;28;20041;-74
2023/03/23 01:45:45;;;;;;;20.98;7.97;;;;;;;;;;1046495;28;20043;-74
2023/03/23 01:46:16;;;;;;;50.13;8.63;;;;;;;;;;1046072;28;20028;-74
2023/03/23 01:46:46;;;;;;;9.27;5.72;;;;;;;;;;1046015;28;20119;-74
2023/03/23 01:47:20;;;;;;;16.05;5.68;;;;;;;;;;1045683;28;20031;-74
2023/03/23 01:48:20;;;;;;;12.65;4.07;;;;;;;;;;1046331;28;20025;-74
2023/03/23 01:48:50;;;;;;;9.32;3.63;;;;;;;;;;1044797;28;20020;-74
2023/03/23 01:49:26;;;;;;;13.80;6.18;;;;;;;;;;1045577;28;20043;-74
2023/03/23 01:49:56;;;;;;;13.25;6.05;;;;;;;;;;1045437;28;20785;-74
2023/03/23 01:50:28;;;;;;;7.55;5.32;;;;;;;;;;1045932;28;20035;-75
2023/03/23 01:51:01;;;;;;;14.30;4.55;;;;;;;;;;1043564;28;20547;-75
2023/03/23 01:51:33;;;;;;;15.65;5.05;;;;;;;;;;1040535;28;20034;-75
2023/03/23 01:52:16;;;;;;;11.27;3.80;;;;;;;;;;1042261;28;20457;-74
2023/03/23 01:52:47;;;;;;;5.88;3.80;;;;;;;;;;1044318;28;20041;-75
2023/03/23 01:53:18;;;;;;;15.57;4.00;;;;;;;;;;1045578;28;20459;-75
2023/03/23 01:53:52;;;;;;;9.38;3.70;;;;;;;;;;1045075;28;20033;-74
2023/03/23 01:54:26;;;;;;;5.63;3.22;;;;;;;;;;1044954;28;20063;-74
2023/03/23 01:54:57;;;;;;;7.80;3.28;;;;;;;;;;1047524;28;20035;-74
2023/03/23 01:55:28;;;;;;;5.30;3.97;;;;;;;;;;1044541;28;20024;-74
2023/03/23 01:55:59;;;;;;;18.55;4.28;;;;;;;;;;1043608;28;20767;-74
2023/03/23 01:56:33;;;;;;;3.50;2.42;;;;;;;;;;1044602;28;20029;-75
2023/03/23 01:57:06;;;;;;;9.13;4.82;;;;;;;;;;1045299;28;20021;-75
2023/03/23 01:57:37;;;;;;;7.72;4.57;;;;;;;;;;1046170;28;20039;-75
2023/03/23 01:58:08;;;;;;;25.30;5.53;;;;;;;;;;1045841;28;20060;-74
2023/03/23 01:58:39;;;;;;;10.00;4.43;;;;;;;;;;1042880;28;20028;-74
2023/03/23 01:59:10;;;;;;;5.65;4.20;;;;;;;;;;1044655;28;20043;-75
2023/03/23 01:59:42;;;;;;;9.73;5.93;;;;;;;;;;1044571;28;20430;-75
2023/03/23 02:00:16;;;;;;;27.38;5.18;;;;;;;;;;1045301;28;20052;-74
2023/03/23 02:00:47;;;;;;;15.32;8.18;;;;;;;;;;1043812;28;20076;-74
2023/03/23 02:01:18;;;;;;;16.35;9.18;;;;;;;;;;1044262;28;20067;-73
2023/03/23 02:01:52;;;;;;;19.73;8.20;;;;;;;;;;1045717;28;20032;-76
2023/03/23 02:02:24;;;;;;;19.10;8.73;;;;;;;;;;1042376;28;20037;-73
2023/03/23 02:02:55;;;;;;;17.02;9.30;;;;;;;;;;1045790;28;20029;-74
2023/03/23 02:03:25;;;;;;;21.75;10.43;;;;;;;;;;1046558;28;20396;-74
2023/03/23 02:03:56;;;;;;;17.77;7.03;;;;;;;;;;1043936;28;20057;-74
2023/03/23 02:04:29;;;;;;;19.92;10.90;;;;;;;;;;1044544;28;20032;-74
2023/03/23 02:05:02;;;;;;;27.27;10.90;;;;;;;;;;1046063;28;20460;-75
2023/03/23 02:05:36;;;;;;;23.52;9.30;;;;;;;;;;1043892;28;20032;-74
2023/03/23 02:06:07;;;;;;;23.05;8.80;;;;;;;;;;1045748;28;20021;-74
2023/03/23 02:06:38;;;;;;;29.45;9.98;;;;;;;;;;1042895;28;20079;-73
2023/03/23 02:07:09;;;;;;;27.80;10.60;;;;;;;;;;1046008;28;20031;-73
2023/03/23 02:07:40;;;;;;;34.53;10.98;;;;;;;;;;1045199;28;20039;-74
2023/03/23 02:08:12;;;;;;;24.17;5.95;;;;;;;;;;1045014;28;20020;-73
2023/03/23 02:08:43;;;;;;;21.58;7.88;;;;;;;;;;1044891;28;20525;-74
2023/03/23 02:09:17;;;;;;;40.95;9.48;;;;;;;;;;1041194;28;20475;-74
2023/03/23 02:09:47;;;;;;;15.93;6.45;;;;;;;;;;1042864;28;20576;-74
2023/03/23 02:10:18;;;;;;;12.65;7.22;;;;;;;;;;1041223;28;20253;-73
2023/03/23 02:10:49;;;;;;;20.45;7.80;;;;;;;;;;1045264;28;20087;-73
2023/03/23 02:11:21;;;;;;;19.58;9.57;;;;;;;;;;1047242;28;20043;-74
2023/03/23 02:11:53;;;;;;;13.35;7.32;;;;;;;;;;1046706;28;20113;-74
2023/03/23 02:12:24;;;;;;;27.42;7.07;;;;;;;;;;1043483;28;20028;-73
2023/03/23 02:12:55;;;;;;;27.88;7.05;;;;;;;;;;1042698;28;20140;-73
2023/03/23 02:13:26;;;;;;;16.98;8.10;;;;;;;;;;1042696;28;20028;-74
2023/03/23 02:13:56;;;;;;;15.68;7.05;;;;;;;;;;1039109;28;20444;-74
2023/03/23 02:14:28;;;;;;;24.10;8.95;;;;;;;;;;1037597;28;20067;-74
2023/03/23 02:14:59;;;;;;;25.55;9.50;;;;;;;;;;1040615;28;20029;-74
2023/03/23 02:15:37;;;;;;;32.22;8.63;;;;;;;;;;1043238;28;20032;-74
2023/03/23 02:16:12;;;;;;;21.88;8.45;;;;;;;;;;1042085;28;20036;-74
2023/03/23 02:16:46;;;;;;;23.70;9.00;;;;;;;;;;1045270;28;20522;-73
2023/03/23 02:17:22;;;;;;;26.65;7.97;;;;;;;;;;1045365;28;20025;-73
2023/03/23 02:17:59;;;;;;;18.67;9.23;;;;;;;;;;1047020;28;20029;-73
2023/03/23 02:18:35;;;;;;;23.30;8.35;;;;;;;;;;1046826;28;20690;-73
2023/03/23 02:19:27;;;;;;;23.98;9.48;;;;;;;;;;1046473;28;20052;-73
2023/03/23 02:19:58;;;;;;;22.08;8.30;;;;;;;;;;1047140;28;20032;-73
2023/03/23 02:20:45;;;;;;;17.20;9.27;;;;;;;;;;1044407;28;20567;-73
2023/03/23 02:21:28;;;;;;;21.10;8.98;;;;;;;;;;1046659;28;20035;-73
2023/03/23 02:22:12;;;;;;;15.25;6.72;;;;;;;;;;1046981;28;20477;-73
2023/03/23 02:22:42;;;;;;;10.82;5.18;;;;;;;;;;1043177;28;20016;-73
2023/03/23 02:23:13;;;;;;;16.20;6.70;;;;;;;;;;1040694;28;20126;-75
2023/03/23 02:24:02;;;;;;;42.15;8.90;;;;;;;;;;1043825;28;20123;-73
2023/03/23 02:24:32;;;;;;;9.00;5.80;;;;;;;;;;1046378;28;20074;-74
2023/03/23 02:25:09;;;;;;;20.58;6.47;;;;;;;;;;1044513;28;20131;-75
2023/03/23 02:26:18;;;;;;;11.13;4.88;;;;;;;;;;1041791;28;20438;-74
2023/03/23 02:26:48;;;;;;;16.55;4.38;;;;;;;;;;1028407;28;20932;-75
2023/03/23 02:27:19;;;;;;;13.00;7.43;;;;;;;;;;1028990;28;20137;-74
2023/03/23 02:27:55;;;;;;;21.45;4.00;;;;;;;;;;1030345;28;20019;-74
2023/03/23 02:28:44;;;;;;;22.35;8.43;;;;;;;;;;1028045;28;20022;-75
2023/03/23 02:29:21;;;;;;;5.82;4.00;;;;;;;;;;1025762;28;20034;-74
2023/03/23 02:30:03;;;;;;;12.73;6.38;;;;;;;;;;1026277;28;21170;-74
2023/03/23 02:30:34;;;;;;;13.50;4.43;;;;;;;;;;1027970;28;20122;-74
2023/03/23 02:31:38;;;;;;;8.50;4.28;;;;;;;;;;1028682;28;20127;-75
2023/03/23 02:32:08;;;;;;;8.15;5.57;;;;;;;;;;1026330;28;20124;-75
2023/03/23 02:32:57;;;;;;;10.05;4.68;;;;;;;;;;1033340;28;20027;-75
2023/03/23 02:33:27;;;;;;;4.65;2.53;;;;;;;;;;1045276;28;20029;-74
2023/03/23 02:34:05;;;;;;;6.10;4.40;;;;;;;;;;1046606;28;20048;-75
2023/03/23 02:34:45;;;;;;;9.27;2.85;;;;;;;;;;1046429;28;20032;-74
2023/03/23 02:35:19;;;;;;;32.20;5.13;;;;;;;;;;1045180;28;20063;-75
2023/03/23 02:35:52;;;;;;;23.50;4.60;;;;;;;;;;1044038;28;20064;-74
2023/03/23 02:36:26;;;;;;;6.60;2.63;;;;;;;;;;1043186;28;20034;-74
2023/03/23 02:37:02;;;;;;;15.00;4.13;;;;;;;;;;1043389;28;20047;-74
2023/03/23 02:37:46;;;;;;;2.22;2.03;;;;;;;;;;1043371;28;20039;-74
2023/03/23 02:38:20;;;;;;;14.73;6.35;;;;;;;;;;1043191;28;20500;-74
2023/03/23 02:38:58;;;;;;;3.38;2.50;;;;;;;;;;1044491;28;20067;-74
2023/03/23 02:39:31;;;;;;;5.80;4.55;;;;;;;;;;1038223;28;21102;-74
2023/03/23 02:40:11;;;;;;;9.30;3.63;;;;;;;;;;1041813;28;20556;-74
2023/03/23 02:40:43;;;;;;;4.90;2.63;;;;;;;;;;1042970;28;20028;-73
2023/03/23 02:41:15;;;;;;;20.48;6.50;;;;;;;;;;1042849;28;20032;-74
2023/03/23 02:41:49;;;;;;;13.25;3.47;;;;;;;;;;1039828;28;21141;-74
2023/03/23 02:42:31;;;;;;;11.27;4.93;;;;;;;;;;1034569;28;20030;-75
2023/03/23 02:43:02;;;;;;;23.33;4.93;;;;;;;;;;1035880;28;20152;-74
2023/03/23 02:43:36;;;;;;;15.00;4.22;;;;;;;;;;1034213;28;20041;-74
2023/03/23 02:44:08;;;;;;;9.88;4.97;;;;;;;;;;1038771;28;20073;-73
2023/03/23 02:44:41;;;;;;;8.13;4.10;;;;;;;;;;1037243;28;20704;-73
2023/03/23 02:45:13;;;;;;;4.85;2.97;;;;;;;;;;1041123;28;20547;-74
2023/03/23 02:45:45;;;;;;;12.95;3.15;;;;;;;;;;1046335;28;20035;-74
2023/03/23 02:46:16;;;;;;;5.15;3.20;;;;;;;;;;1040968;28;20048;-74
2023/03/23 02:46:47;;;;;;;10.50;3.90;;;;;;;;;;1044603;28;20032;-73
2023/03/23 02:47:20;;;;;;;4.80;3.00;;;;;;;;;;1038885;28;20021;-74
2023/03/23 02:47:52;;;;;;;22.98;6.07;;;;;;;;;;1038945;28;20497;-74
2023/03/23 02:48:30;;;;;;;7.80;3.63;;;;;;;;;;1036861;28;20037;-74
2023/03/23 02:49:02;;;;;;;9.27;5.07;;;;;;;;;;1037302;28;20035;-73
2023/03/23 02:49:38;;;;;;;14.85;5.57;;;;;;;;;;1040556;28;20092;-73
2023/03/23 02:50:11;;;;;;;15.13;6.50;;;;;;;;;;1039351;28;20129;-74
2023/03/23 02:50:45;;;;;;;11.65;3.50;;;;;;;;;;1038715;28;20083;-75
2023/03/23 02:51:15;;;;;;;20.92;6.45;;;;;;;;;;1041928;28;20082;-74
2023/03/23 02:51:46;;;;;;;13.13;5.90;;;;;;;;;;1040458;28;20070;-75
2023/03/23 02:52:22;;;;;;;18.50;5.03;;;;;;;;;;1040707;28;20474;-73
2023/03/23 02:52:54;;;;;;;22.58;6.40;;;;;;;;;;1040263;28;20378;-74
2023/03/23 02:53:25;;;;;;;14.90;5.50;;;;;;;;;;1040503;28;20032;-77
2023/03/23 02:53:56;;;;;;;28.73;8.57;;;;;;;;;;1041559;28;20029;-75
2023/03/23 02:54:27;;;;;;;17.02;7.20;;;;;;;;;;1041113;28;20496;-74
2023/03/23 02:54:59;;;;;;;25.15;6.78;;;;;;;;;;1041120;28;20052;-75
2023/03/23 02:55:31;;;;;;;14.50;7.07;;;;;;;;;;1040079;28;20130;-74
2023/03/23 02:56:02;;;;;;;25.25;8.02;;;;;;;;;;1041824;28;20490;-75
2023/03/23 02:56:34;;;;;;;37.97;8.20;;;;;;;;;;1040991;28;20168;-74
2023/03/23 02:57:05;;;;;;;26.02;6.97;;;;;;;;;;1039112;28;20033;-75
2023/03/23 02:57:37;;;;;;;13.98;7.05;;;;;;;;;;1042035;28;21322;-75
2023/03/23 02:58:08;;;;;;;17.30;6.75;;;;;;;;;;1043113;28;20115;-75
2023/03/23 02:58:39;;;;;;;17.08;5.88;;;;;;;;;;1040878;28;20067;-75
2023/03/23 02:59:10;;;;;;;13.13;7.03;;;;;;;;;;1036612;28;20190;-74
2023/03/23 02:59:40;;;;;;;14.35;7.68;;;;;;;;;;1039113;28;20032;-74
2023/03/23 03:00:13;;;;;;;25.65;6.93;;;;;;;;;;1040669;28;20123;-74
2023/03/23 03:00:49;;;;;;;23.63;9.13;;;;;;;;;;1043102;28;20634;-75
2023/03/23 03:01:33;;;;;;;10.77;6.63;;;;;;;;;;1041774;28;20043;-75
2023/03/23 03:02:06;;;;;;;10.40;5.57;;;;;;;;;;1042279;28;20204;-74
2023/03/23 03:02:42;;;;;;;15.95;7.32;;;;;;;;;;1042174;28;20024;-75
2023/03/23 03:03:14;;;;;;;13.00;8.27;;;;;;;;;;1042682;28;20087;-75
2023/03/23 03:03:45;;;;;;;14.10;7.00;;;;;;;;;;1040988;28;20080;-74
2023/03/23 03:04:18;;;;;;;18.70;7.63;;;;;;;;;;1042528;28;20036;-74
2023/03/23 03:04:58;;;;;;;16.90;6.95;;;;;;;;;;1042855;28;20043;-74
2023/03/23 03:05:29;;;;;;;14.70;7.30;;;;;;;;;;1044563;28;20066;-74
2023/03/23 03:06:00;;;;;;;26.40;8.23;;;;;;;;;;1043350;28;20032;-74
2023/03/23 03:06:34;;;;;;;18.08;9.02;;;;;;;;;;1043044;28;20039;-74
2023/03/23 03:07:04;;;;;;;14.73;5.95;;;;;;;;;;1042485;28;20024;-75
2023/03/23 03:07:48;;;;;;;22.08;8.65;;;;;;;;;;1039294;28;20036;-74
2023/03/23 03:08:34;;;;;;;21.80;8.25;;;;;;;;;;1044286;28;20087;-75
2023/03/23 03:09:15;;;;;;;18.63;6.22;;;;;;;;;;1044154;28;20020;-74
2023/03/23 03:09:46;;;;;;;18.58;6.50;;;;;;;;;;1040225;28;20551;-74
2023/03/23 03:10:17;;;;;;;30.38;8.40;;;;;;;;;;1036354;28;20037;-74
2023/03/23 03:10:54;;;;;;;25.60;7.63;;;;;;;;;;1037824;28;20619;-74
2023/03/23 03:11:27;;;;;;;21.92;8.52;;;;;;;;;;1039741;28;20033;-74
2023/03/23 03:12:01;;;;;;;30.70;8.23;;;;;;;;;;1042039;28;20392;-74
2023/03/23 03:12:31;;;;;;;32.38;7.53;;;;;;;;;;1044527;28;20032;-75
2023/03/23 03:13:04;;;;;;;24.92;8.93;;;;;;;;;;1041030;28;20024;-74
2023/03/23 03:13:47;;;;;;;16.75;6.88;;;;;;;;;;1036167;28;20028;-75
2023/03/23 03:14:30;;;;;;;25.95;8.45;;;;;;;;;;1038834;28;20026;-74
2023/03/23 03:15:19;;;;;;;12.25;6.35;;;;;;;;;;1044217;28;20036;-75